createdAt,value
2023-11-24T06:59:27.688Z,0.50
2023-11-24T07:06:48.935Z,1.08
2023-11-24T13:31:44.459Z,0.95
2023-11-24T13:34:13.707Z,1.48
2023-11-24T13:36:42.390Z,0.95
2023-11-24T13:39:14.007Z,0.90
2023-11-24T13:41:43.420Z,0.82
2023-11-24T13:44:12.674Z,1.20
2023-11-24T13:46:40.325Z,0.90
2023-11-24T13:49:10.128Z,0.60
2023-11-24T13:51:37.375Z,1.27
2023-11-24T13:54:05.270Z,1.90
2023-11-24T13:56:32.766Z,2.00
2023-11-24T13:58:59.988Z,1.63
2023-11-24T14:01:27.281Z,1.50
2023-11-24T14:03:54.454Z,1.83
2023-11-24T14:06:23.447Z,1.50
2023-11-24T14:08:50.884Z,0.93
2023-11-24T14:11:17.847Z,0.87
2023-11-24T14:13:46.268Z,1.27
2023-11-24T14:16:13.675Z,0.90
2023-11-24T14:18:42.060Z,1.08
2023-11-24T14:21:09.157Z,1.00
2023-11-24T14:23:36.089Z,1.02
2023-11-24T14:26:03.814Z,1.10
2023-11-24T14:28:30.899Z,0.77
2023-11-24T14:30:57.908Z,0.77
2023-11-24T14:33:26.200Z,2.03
2023-11-24T14:35:53.107Z,0.60
2023-11-24T14:38:20.024Z,1.00
2023-11-24T14:40:47.334Z,0.97
2023-11-24T14:43:16.148Z,0.82
2023-11-24T14:45:44.678Z,1.00
2023-11-24T14:48:11.745Z,0.70
2023-11-24T14:50:38.739Z,0.68
2023-11-24T14:53:06.289Z,0.65
2023-11-24T14:55:36.139Z,0.80
2023-11-24T14:58:04.826Z,0.98
2023-11-24T15:00:34.907Z,0.70
2023-11-24T15:03:05.976Z,0.70
2023-11-24T15:05:34.685Z,0.60
2023-11-24T15:08:08.669Z,0.90
2023-11-24T15:10:36.197Z,0.70
2023-11-24T15:13:10.528Z,0.98
2023-11-24T15:15:41.337Z,1.00
2023-11-24T15:18:10.213Z,0.60
2023-11-24T15:20:45.900Z,0.88
2023-11-24T15:23:14.354Z,0.80
2023-11-24T15:26:11.135Z,0.70
2023-11-24T15:28:39.768Z,1.35
2023-11-24T15:31:07.203Z,1.00
2023-11-24T15:33:34.611Z,1.08
2023-11-24T15:36:03.690Z,1.73
2023-11-24T15:38:31.009Z,0.82
2023-11-24T15:40:57.996Z,1.90
2023-11-24T15:43:25.388Z,2.42
2023-11-24T15:45:59.025Z,2.60
2023-11-24T15:48:27.483Z,3.50
2023-11-24T15:50:54.580Z,3.78
2023-11-24T15:53:23.225Z,2.28
2023-11-24T15:56:14.387Z,1.90
2023-11-24T15:58:44.589Z,1.87
2023-11-24T16:01:13.784Z,1.33
2023-11-24T16:03:40.899Z,1.17
2023-11-24T16:06:15.656Z,1.50
2023-11-24T16:08:46.214Z,1.63
2023-11-24T16:11:13.697Z,1.70
2023-11-24T16:13:45.917Z,2.00
2023-11-24T16:16:13.680Z,2.00
2023-11-24T16:18:43.352Z,1.92
2023-11-24T16:21:10.438Z,1.45
2023-11-24T16:23:37.323Z,1.50
2023-11-24T16:26:04.259Z,1.80
2023-11-24T16:28:31.252Z,1.75
2023-11-24T16:30:58.219Z,1.75
2023-11-24T16:33:25.390Z,2.00
2023-11-24T16:35:52.389Z,1.80
2023-11-24T16:38:19.417Z,1.40
2023-11-24T16:40:46.489Z,1.17
2023-11-24T16:43:13.442Z,1.52
2023-11-24T16:45:40.339Z,1.40
2023-11-24T16:48:07.214Z,1.70
2023-11-24T16:50:35.326Z,1.50
2023-11-24T16:53:02.272Z,1.70
2023-11-24T16:55:30.644Z,1.43
2023-11-24T16:57:57.587Z,1.70
2023-11-24T17:00:24.663Z,1.63
2023-11-24T17:02:52.593Z,1.47
2023-11-24T17:05:19.823Z,1.58
2023-11-24T17:07:47.321Z,1.70
2023-11-24T17:10:15.607Z,1.07
2023-11-24T17:12:43.042Z,1.27
2023-11-24T17:15:11.484Z,1.55
2023-11-24T17:17:38.971Z,1.13
2023-11-24T17:20:09.295Z,1.20
2023-11-24T17:22:36.595Z,1.40
2023-11-24T17:25:04.006Z,1.50
2023-11-24T17:27:31.905Z,1.20
2023-11-24T17:29:59.568Z,1.80
2023-11-24T17:32:26.563Z,1.85
2023-11-24T17:34:53.589Z,1.23
2023-11-24T17:37:20.907Z,2.30
2023-11-24T17:39:47.869Z,3.25
2023-11-24T17:42:14.800Z,1.60
2023-11-24T17:44:41.726Z,2.33
2023-11-24T17:47:08.925Z,1.83
2023-11-24T17:49:35.912Z,1.70
2023-11-24T17:52:03.309Z,1.90
2023-11-24T17:54:30.303Z,1.55
2023-11-24T17:56:58.041Z,1.20
2023-11-24T17:59:24.961Z,1.20
2023-11-24T18:01:51.947Z,1.30
2023-11-24T18:04:19.076Z,1.23
2023-11-24T18:06:46.015Z,2.20
2023-11-24T18:09:13.211Z,3.13
2023-11-24T18:11:40.207Z,3.95
2023-11-24T18:14:07.184Z,3.42
2023-11-24T18:16:34.453Z,4.20
2023-11-24T18:19:01.556Z,4.80
2023-11-24T18:21:28.669Z,4.35
2023-11-24T18:23:55.605Z,4.65
2023-11-24T18:26:22.491Z,4.20
2023-11-24T18:28:50.559Z,5.18
2023-11-24T18:31:17.751Z,5.05
2023-11-24T18:33:45.413Z,4.72
2023-11-24T18:36:12.469Z,4.70
2023-11-24T18:38:40.692Z,4.18
2023-11-24T18:41:07.748Z,3.55
2023-11-24T18:43:39.808Z,3.83
2023-11-24T18:46:08.165Z,3.50
2023-11-24T18:48:35.426Z,2.97
2023-11-24T21:03:30.512Z,1.58
2023-11-24T21:05:57.528Z,2.35
2023-11-24T21:10:51.411Z,1.40
2023-11-24T21:13:20.239Z,1.75
2023-11-24T21:15:47.218Z,1.30
2023-11-24T21:18:14.328Z,1.40
2023-11-24T21:20:41.978Z,1.77
2023-11-24T21:23:08.916Z,1.42
2023-11-24T21:45:14.083Z,1.75
2023-11-24T21:47:44.316Z,3.80
2023-11-24T21:50:14.587Z,4.38
